sensor_id;sensor_type;location;lat;lon;timestamp;P1;durP1;ratioP1;P2;durP2;ratioP2
1651;SDS011;823;49.028;8.454;2023-02-26T00:00:00;5.50;;;2.03;;
1651;SDS011;823;49.028;8.454;2023-02-26T00:05:03;10.07;;;2.20;;
1651;SDS011;823;49.028;8.454;2023-02-26T00:10:05;4.33;;;1.53;;
1651;SDS011;823;49.028;8.454;2023-02-26T00:15:07;2.90;;;1.40;;
1651;SDS011;823;49.028;8.454;2023-02-26T00:20:12;4.23;;;1.53;;
1651;SDS011;823;49.028;8.454;2023-02-26T00:25:12;3.67;;;2.20;;
1651;SDS011;823;49.028;8.454;2023-02-26T00:30:13;9.07;;;2.07;;
1651;SDS011;823;49.028;8.454;2023-02-26T00:35:14;5.67;;;2.07;;
1651;SDS011;823;49.028;8.454;2023-02-26T00:45:37;8.80;;;1.77;;
1651;SDS011;823;49.028;8.454;2023-02-26T00:50:45;3.27;;;1.50;;
1651;SDS011;823;49.028;8.454;2023-02-26T00:55:55;5.10;;;1.80;;
1651;SDS011;823;49.028;8.454;2023-02-26T01:00:55;2.55;;;1.48;;
1651;SDS011;823;49.028;8.454;2023-02-26T01:05:56;4.07;;;2.08;;
1651;SDS011;823;49.028;8.454;2023-02-26T01:10:56;5.17;;;2.20;;
1651;SDS011;823;49.028;8.454;2023-02-26T01:15:59;5.57;;;2.10;;
1651;SDS011;823;49.028;8.454;2023-02-26T01:21:08;6.13;;;2.50;;
1651;SDS011;823;49.028;8.454;2023-02-26T01:26:14;3.60;;;1.97;;
1651;SDS011;823;49.028;8.454;2023-02-26T01:36:21;6.13;;;2.05;;
1651;SDS011;823;49.028;8.454;2023-02-26T01:41:30;5.40;;;1.73;;
1651;SDS011;823;49.028;8.454;2023-02-26T01:46:54;4.30;;;2.10;;
1651;SDS011;823;49.028;8.454;2023-02-26T01:52:04;1.93;;;1.50;;
1651;SDS011;823;49.028;8.454;2023-02-26T01:57:24;2.10;;;1.77;;
1651;SDS011;823;49.028;8.454;2023-02-26T02:02:25;7.90;;;2.30;;
1651;SDS011;823;49.028;8.454;2023-02-26T02:07:26;3.60;;;2.27;;
1651;SDS011;823;49.028;8.454;2023-02-26T02:23:40;3.83;;;2.37;;
1651;SDS011;823;49.028;8.454;2023-02-26T02:28:58;6.20;;;2.13;;
1651;SDS011;823;49.028;8.454;2023-02-26T02:34:18;9.00;;;2.60;;
1651;SDS011;823;49.028;8.454;2023-02-26T02:44:32;5.30;;;2.20;;
1651;SDS011;823;49.028;8.454;2023-02-26T02:49:36;3.27;;;1.90;;
1651;SDS011;823;49.028;8.454;2023-02-26T02:54:48;7.77;;;3.33;;
1651;SDS011;823;49.028;8.454;2023-02-26T03:00:03;5.80;;;2.23;;
1651;SDS011;823;49.028;8.454;2023-02-26T03:05:09;3.83;;;1.60;;
1651;SDS011;823;49.028;8.454;2023-02-26T03:10:10;7.87;;;2.10;;
1651;SDS011;823;49.028;8.454;2023-02-26T03:15:11;7.07;;;2.20;;
1651;SDS011;823;49.028;8.454;2023-02-26T03:20:23;8.13;;;2.40;;
1651;SDS011;823;49.028;8.454;2023-02-26T03:25:30;3.73;;;2.40;;
1651;SDS011;823;49.028;8.454;2023-02-26T03:30:41;2.60;;;2.40;;
1651;SDS011;823;49.028;8.454;2023-02-26T03:41:12;5.03;;;2.70;;
1651;SDS011;823;49.028;8.454;2023-02-26T03:46:17;4.37;;;2.70;;
1651;SDS011;823;49.028;8.454;2023-02-26T03:51:24;7.10;;;2.90;;
1651;SDS011;823;49.028;8.454;2023-02-26T03:56:32;5.17;;;3.13;;
1651;SDS011;823;49.028;8.454;2023-02-26T04:01:43;16.40;;;3.13;;
1651;SDS011;823;49.028;8.454;2023-02-26T04:06:48;10.33;;;2.53;;
1651;SDS011;823;49.028;8.454;2023-02-26T04:11:48;4.47;;;2.13;;
1651;SDS011;823;49.028;8.454;2023-02-26T04:16:52;3.87;;;1.87;;
1651;SDS011;823;49.028;8.454;2023-02-26T04:21:52;5.40;;;2.10;;
1651;SDS011;823;49.028;8.454;2023-02-26T04:26:53;6.57;;;2.73;;
1651;SDS011;823;49.028;8.454;2023-02-26T04:31:53;6.50;;;2.65;;
1651;SDS011;823;49.028;8.454;2023-02-26T04:36:53;4.90;;;1.80;;
1651;SDS011;823;49.028;8.454;2023-02-26T04:41:53;6.70;;;1.63;;
1651;SDS011;823;49.028;8.454;2023-02-26T04:46:54;3.40;;;1.85;;
1651;SDS011;823;49.028;8.454;2023-02-26T04:51:54;3.60;;;1.80;;
1651;SDS011;823;49.028;8.454;2023-02-26T04:56:54;4.78;;;2.55;;
1651;SDS011;823;49.028;8.454;2023-02-26T05:01:55;3.90;;;1.90;;
1651;SDS011;823;49.028;8.454;2023-02-26T05:06:55;4.30;;;2.03;;
1651;SDS011;823;49.028;8.454;2023-02-26T05:11:55;3.43;;;2.00;;
1651;SDS011;823;49.028;8.454;2023-02-26T05:16:56;3.47;;;1.60;;
1651;SDS011;823;49.028;8.454;2023-02-26T05:21:56;4.53;;;2.20;;
1651;SDS011;823;49.028;8.454;2023-02-26T05:26:56;5.20;;;2.58;;
1651;SDS011;823;49.028;8.454;2023-02-26T05:31:57;2.65;;;1.65;;
1651;SDS011;823;49.028;8.454;2023-02-26T05:36:57;6.03;;;2.67;;
1651;SDS011;823;49.028;8.454;2023-02-26T05:41:57;15.63;;;2.70;;
1651;SDS011;823;49.028;8.454;2023-02-26T05:46:58;6.90;;;2.77;;
1651;SDS011;823;49.028;8.454;2023-02-26T05:51:58;4.67;;;2.50;;
1651;SDS011;823;49.028;8.454;2023-02-26T05:56:59;5.60;;;3.05;;
1651;SDS011;823;49.028;8.454;2023-02-26T06:01:59;7.97;;;2.57;;
1651;SDS011;823;49.028;8.454;2023-02-26T06:07:00;4.50;;;2.60;;
1651;SDS011;823;49.028;8.454;2023-02-26T06:12:00;9.20;;;3.03;;
1651;SDS011;823;49.028;8.454;2023-02-26T06:17:04;8.00;;;2.73;;
1651;SDS011;823;49.028;8.454;2023-02-26T06:22:05;4.70;;;2.00;;
1651;SDS011;823;49.028;8.454;2023-02-26T06:27:05;5.28;;;2.60;;
1651;SDS011;823;49.028;8.454;2023-02-26T06:32:06;5.38;;;2.72;;
1651;SDS011;823;49.028;8.454;2023-02-26T06:37:06;17.33;;;2.60;;
1651;SDS011;823;49.028;8.454;2023-02-26T06:42:07;5.20;;;2.97;;
1651;SDS011;823;49.028;8.454;2023-02-26T06:47:07;7.20;;;2.77;;
1651;SDS011;823;49.028;8.454;2023-02-26T06:52:07;7.33;;;3.63;;
1651;SDS011;823;49.028;8.454;2023-02-26T06:57:07;7.63;;;4.50;;
1651;SDS011;823;49.028;8.454;2023-02-26T07:02:11;16.83;;;5.18;;
1651;SDS011;823;49.028;8.454;2023-02-26T07:07:16;15.87;;;5.50;;
1651;SDS011;823;49.028;8.454;2023-02-26T07:12:16;29.10;;;8.60;;
1651;SDS011;823;49.028;8.454;2023-02-26T07:17:16;6.20;;;3.57;;
1651;SDS011;823;49.028;8.454;2023-02-26T07:22:19;5.53;;;2.60;;
1651;SDS011;823;49.028;8.454;2023-02-26T07:27:20;11.80;;;5.43;;
1651;SDS011;823;49.028;8.454;2023-02-26T07:32:20;12.60;;;4.07;;
1651;SDS011;823;49.028;8.454;2023-02-26T07:37:21;6.93;;;3.70;;
1651;SDS011;823;49.028;8.454;2023-02-26T07:42:21;8.50;;;2.97;;
1651;SDS011;823;49.028;8.454;2023-02-26T07:47:22;12.73;;;2.97;;
1651;SDS011;823;49.028;8.454;2023-02-26T07:52:22;5.78;;;2.00;;
1651;SDS011;823;49.028;8.454;2023-02-26T07:57:22;7.40;;;3.43;;
1651;SDS011;823;49.028;8.454;2023-02-26T08:02:22;13.38;;;3.30;;
1651;SDS011;823;49.028;8.454;2023-02-26T08:07:23;3.80;;;1.83;;
1651;SDS011;823;49.028;8.454;2023-02-26T08:12:23;6.97;;;2.20;;
1651;SDS011;823;49.028;8.454;2023-02-26T08:17:23;5.90;;;2.70;;
1651;SDS011;823;49.028;8.454;2023-02-26T08:22:24;3.47;;;2.20;;
1651;SDS011;823;49.028;8.454;2023-02-26T08:27:24;7.23;;;2.20;;
1651;SDS011;823;49.028;8.454;2023-02-26T08:32:25;11.53;;;2.60;;
1651;SDS011;823;49.028;8.454;2023-02-26T08:37:27;4.80;;;1.70;;
1651;SDS011;823;49.028;8.454;2023-02-26T08:42:27;4.10;;;1.83;;
1651;SDS011;823;49.028;8.454;2023-02-26T08:47:27;6.25;;;1.85;;
1651;SDS011;823;49.028;8.454;2023-02-26T08:52:28;4.10;;;1.47;;
1651;SDS011;823;49.028;8.454;2023-02-26T08:57:28;11.07;;;1.90;;
1651;SDS011;823;49.028;8.454;2023-02-26T09:02:28;3.78;;;1.70;;
1651;SDS011;823;49.028;8.454;2023-02-26T09:07:28;3.08;;;1.63;;
1651;SDS011;823;49.028;8.454;2023-02-26T09:12:29;4.43;;;1.60;;
1651;SDS011;823;49.028;8.454;2023-02-26T09:17:29;4.40;;;1.93;;
1651;SDS011;823;49.028;8.454;2023-02-26T09:22:30;5.60;;;2.03;;
1651;SDS011;823;49.028;8.454;2023-02-26T09:27:30;3.93;;;1.40;;
1651;SDS011;823;49.028;8.454;2023-02-26T09:32:31;1.70;;;0.90;;
1651;SDS011;823;49.028;8.454;2023-02-26T09:37:31;3.20;;;0.93;;
1651;SDS011;823;49.028;8.454;2023-02-26T09:42:42;3.13;;;1.43;;
1651;SDS011;823;49.028;8.454;2023-02-26T09:47:46;3.47;;;1.10;;
1651;SDS011;823;49.028;8.454;2023-02-26T09:52:54;5.50;;;1.30;;
1651;SDS011;823;49.028;8.454;2023-02-26T09:58:04;2.20;;;1.13;;
1651;SDS011;823;49.028;8.454;2023-02-26T10:08:58;1.60;;;0.93;;
1651;SDS011;823;49.028;8.454;2023-02-26T10:14:04;6.03;;;1.10;;
1651;SDS011;823;49.028;8.454;2023-02-26T10:19:13;7.60;;;1.03;;
1651;SDS011;823;49.028;8.454;2023-02-26T10:24:24;5.57;;;1.07;;
1651;SDS011;823;49.028;8.454;2023-02-26T10:29:34;2.50;;;1.03;;
1651;SDS011;823;49.028;8.454;2023-02-26T10:39:54;2.50;;;1.03;;
1651;SDS011;823;49.028;8.454;2023-02-26T10:50:30;1.50;;;1.03;;
1651;SDS011;823;49.028;8.454;2023-02-26T11:00:34;5.77;;;3.43;;
1651;SDS011;823;49.028;8.454;2023-02-26T11:05:34;1.37;;;0.70;;
1651;SDS011;823;49.028;8.454;2023-02-26T11:11:08;1.97;;;0.90;;
1651;SDS011;823;49.028;8.454;2023-02-26T11:16:04;2.53;;;1.30;;
1651;SDS011;823;49.028;8.454;2023-02-26T11:21:15;1.40;;;1.00;;
1651;SDS011;823;49.028;8.454;2023-02-26T11:26:18;5.43;;;1.00;;
1651;SDS011;823;49.028;8.454;2023-02-26T11:31:26;3.33;;;0.80;;
1651;SDS011;823;49.028;8.454;2023-02-26T11:36:27;1.50;;;0.60;;
1651;SDS011;823;49.028;8.454;2023-02-26T11:41:29;2.07;;;1.20;;
1651;SDS011;823;49.028;8.454;2023-02-26T11:46:40;1.80;;;1.10;;
1651;SDS011;823;49.028;8.454;2023-02-26T11:51:44;2.53;;;0.70;;
1651;SDS011;823;49.028;8.454;2023-02-26T11:56:46;3.73;;;1.83;;
1651;SDS011;823;49.028;8.454;2023-02-26T12:01:46;2.45;;;1.10;;
1651;SDS011;823;49.028;8.454;2023-02-26T12:06:49;1.67;;;1.07;;
1651;SDS011;823;49.028;8.454;2023-02-26T12:32:55;1.30;;;0.73;;
1651;SDS011;823;49.028;8.454;2023-02-26T12:38:16;1.27;;;0.80;;
1651;SDS011;823;49.028;8.454;2023-02-26T12:59:41;1.53;;;0.87;;
1651;SDS011;823;49.028;8.454;2023-02-26T13:10:20;2.10;;;1.00;;
1651;SDS011;823;49.028;8.454;2023-02-26T13:15:34;3.77;;;0.80;;
1651;SDS011;823;49.028;8.454;2023-02-26T13:26:01;1.50;;;0.90;;
1651;SDS011;823;49.028;8.454;2023-02-26T13:31:07;1.87;;;0.97;;
1651;SDS011;823;49.028;8.454;2023-02-26T13:36:13;2.00;;;0.90;;
1651;SDS011;823;49.028;8.454;2023-02-26T13:41:19;1.27;;;0.80;;
1651;SDS011;823;49.028;8.454;2023-02-26T13:51:46;1.10;;;0.70;;
1651;SDS011;823;49.028;8.454;2023-02-26T13:56:52;1.83;;;0.90;;
1651;SDS011;823;49.028;8.454;2023-02-26T14:18:35;1.10;;;0.60;;
1651;SDS011;823;49.028;8.454;2023-02-26T14:23:39;1.17;;;0.73;;
1651;SDS011;823;49.028;8.454;2023-02-26T14:28:42;1.17;;;0.50;;
1651;SDS011;823;49.028;8.454;2023-02-26T14:39:12;1.37;;;0.60;;
1651;SDS011;823;49.028;8.454;2023-02-26T14:44:23;1.10;;;0.70;;
1651;SDS011;823;49.028;8.454;2023-02-26T14:49:31;3.20;;;0.80;;
1651;SDS011;823;49.028;8.454;2023-02-26T15:26:12;1.90;;;0.50;;
1651;SDS011;823;49.028;8.454;2023-02-26T15:31:19;1.17;;;0.60;;
1651;SDS011;823;49.028;8.454;2023-02-26T15:36:20;1.77;;;1.03;;
1651;SDS011;823;49.028;8.454;2023-02-26T15:41:24;1.40;;;1.10;;
1651;SDS011;823;49.028;8.454;2023-02-26T15:46:27;2.80;;;0.60;;
1651;SDS011;823;49.028;8.454;2023-02-26T15:51:34;1.20;;;0.67;;
1651;SDS011;823;49.028;8.454;2023-02-26T15:56:35;1.17;;;0.50;;
1651;SDS011;823;49.028;8.454;2023-02-26T16:01:38;1.33;;;0.60;;
1651;SDS011;823;49.028;8.454;2023-02-26T16:06:40;2.70;;;1.20;;
1651;SDS011;823;49.028;8.454;2023-02-26T16:11:46;1.10;;;0.70;;
1651;SDS011;823;49.028;8.454;2023-02-26T16:16:47;1.17;;;0.70;;
1651;SDS011;823;49.028;8.454;2023-02-26T16:21:50;0.90;;;0.60;;
1651;SDS011;823;49.028;8.454;2023-02-26T16:26:55;1.70;;;0.83;;
1651;SDS011;823;49.028;8.454;2023-02-26T16:32:01;0.93;;;0.50;;
1651;SDS011;823;49.028;8.454;2023-02-26T16:42:32;1.57;;;0.67;;
1651;SDS011;823;49.028;8.454;2023-02-26T16:47:43;1.40;;;0.80;;
1651;SDS011;823;49.028;8.454;2023-02-26T16:52:46;3.00;;;1.50;;
1651;SDS011;823;49.028;8.454;2023-02-26T16:57:58;1.83;;;1.60;;
1651;SDS011;823;49.028;8.454;2023-02-26T17:03:10;1.13;;;0.63;;
1651;SDS011;823;49.028;8.454;2023-02-26T17:13:19;1.20;;;0.40;;
1651;SDS011;823;49.028;8.454;2023-02-26T17:18:24;1.40;;;0.60;;
1651;SDS011;823;49.028;8.454;2023-02-26T17:23:25;1.77;;;0.70;;
1651;SDS011;823;49.028;8.454;2023-02-26T17:28:30;1.30;;;0.70;;
1651;SDS011;823;49.028;8.454;2023-02-26T17:33:34;1.00;;;0.63;;
1651;SDS011;823;49.028;8.454;2023-02-26T17:38:37;1.10;;;0.50;;
1651;SDS011;823;49.028;8.454;2023-02-26T17:43:38;3.57;;;0.63;;
1651;SDS011;823;49.028;8.454;2023-02-26T17:48:38;2.25;;;0.60;;
1651;SDS011;823;49.028;8.454;2023-02-26T17:53:38;1.33;;;0.67;;
1651;SDS011;823;49.028;8.454;2023-02-26T17:58:43;11.47;;;3.10;;
1651;SDS011;823;49.028;8.454;2023-02-26T18:03:44;3.43;;;0.90;;
1651;SDS011;823;49.028;8.454;2023-02-26T18:08:44;1.45;;;0.50;;
1651;SDS011;823;49.028;8.454;2023-02-26T18:13:47;4.30;;;0.70;;
1651;SDS011;823;49.028;8.454;2023-02-26T18:18:47;0.90;;;0.50;;
1651;SDS011;823;49.028;8.454;2023-02-26T18:23:48;1.37;;;0.60;;
1651;SDS011;823;49.028;8.454;2023-02-26T18:28:48;1.50;;;0.75;;
1651;SDS011;823;49.028;8.454;2023-02-26T18:33:50;1.50;;;0.60;;
1651;SDS011;823;49.028;8.454;2023-02-26T18:38:50;4.70;;;0.80;;
1651;SDS011;823;49.028;8.454;2023-02-26T18:43:50;3.65;;;0.85;;
1651;SDS011;823;49.028;8.454;2023-02-26T18:48:51;1.92;;;0.60;;
1651;SDS011;823;49.028;8.454;2023-02-26T18:53:52;2.63;;;1.00;;
1651;SDS011;823;49.028;8.454;2023-02-26T18:58:53;5.90;;;1.00;;
1651;SDS011;823;49.028;8.454;2023-02-26T19:03:53;3.78;;;0.60;;
1651;SDS011;823;49.028;8.454;2023-02-26T19:08:54;1.40;;;0.60;;
1651;SDS011;823;49.028;8.454;2023-02-26T19:13:54;1.38;;;0.70;;
1651;SDS011;823;49.028;8.454;2023-02-26T19:18:55;3.33;;;1.20;;
1651;SDS011;823;49.028;8.454;2023-02-26T19:23:55;1.42;;;0.70;;
1651;SDS011;823;49.028;8.454;2023-02-26T19:28:55;6.20;;;0.90;;
1651;SDS011;823;49.028;8.454;2023-02-26T19:33:56;2.72;;;0.80;;
1651;SDS011;823;49.028;8.454;2023-02-26T19:38:56;2.57;;;0.97;;
1651;SDS011;823;49.028;8.454;2023-02-26T19:43:56;1.60;;;0.80;;
1651;SDS011;823;49.028;8.454;2023-02-26T19:48:57;3.23;;;0.87;;
1651;SDS011;823;49.028;8.454;2023-02-26T19:53:57;15.30;;;2.97;;
1651;SDS011;823;49.028;8.454;2023-02-26T19:58:57;13.05;;;2.70;;
1651;SDS011;823;49.028;8.454;2023-02-26T20:03:58;16.40;;;4.40;;
1651;SDS011;823;49.028;8.454;2023-02-26T20:09:00;2.03;;;1.03;;
1651;SDS011;823;49.028;8.454;2023-02-26T20:14:00;1.80;;;0.77;;
1651;SDS011;823;49.028;8.454;2023-02-26T20:19:01;1.00;;;0.60;;
1651;SDS011;823;49.028;8.454;2023-02-26T20:24:01;3.47;;;1.20;;
1651;SDS011;823;49.028;8.454;2023-02-26T20:29:01;2.03;;;0.90;;
1651;SDS011;823;49.028;8.454;2023-02-26T20:34:03;7.00;;;1.23;;
1651;SDS011;823;49.028;8.454;2023-02-26T20:39:04;2.40;;;0.80;;
1651;SDS011;823;49.028;8.454;2023-02-26T20:44:06;1.87;;;0.60;;
1651;SDS011;823;49.028;8.454;2023-02-26T20:49:06;1.53;;;0.70;;
1651;SDS011;823;49.028;8.454;2023-02-26T20:54:10;8.20;;;1.17;;
1651;SDS011;823;49.028;8.454;2023-02-26T20:59:15;7.33;;;0.73;;
1651;SDS011;823;49.028;8.454;2023-02-26T21:04:16;1.20;;;0.47;;
1651;SDS011;823;49.028;8.454;2023-02-26T21:09:17;6.00;;;0.77;;
1651;SDS011;823;49.028;8.454;2023-02-26T21:14:17;1.67;;;0.60;;
1651;SDS011;823;49.028;8.454;2023-02-26T21:19:17;0.90;;;0.60;;
1651;SDS011;823;49.028;8.454;2023-02-26T21:24:19;8.23;;;0.80;;
1651;SDS011;823;49.028;8.454;2023-02-26T21:29:19;1.17;;;0.73;;
1651;SDS011;823;49.028;8.454;2023-02-26T21:34:20;1.23;;;0.83;;
1651;SDS011;823;49.028;8.454;2023-02-26T21:39:20;0.90;;;0.50;;
1651;SDS011;823;49.028;8.454;2023-02-26T21:44:20;1.30;;;0.50;;
1651;SDS011;823;49.028;8.454;2023-02-26T21:49:21;1.00;;;0.50;;
1651;SDS011;823;49.028;8.454;2023-02-26T21:54:21;3.23;;;0.60;;
1651;SDS011;823;49.028;8.454;2023-02-26T21:59:22;6.07;;;1.20;;
1651;SDS011;823;49.028;8.454;2023-02-26T22:04:22;3.03;;;0.70;;
1651;SDS011;823;49.028;8.454;2023-02-26T22:09:23;0.97;;;0.50;;
1651;SDS011;823;49.028;8.454;2023-02-26T22:14:23;1.88;;;0.60;;
1651;SDS011;823;49.028;8.454;2023-02-26T22:19:23;1.10;;;0.63;;
1651;SDS011;823;49.028;8.454;2023-02-26T22:24:24;2.83;;;0.57;;
1651;SDS011;823;49.028;8.454;2023-02-26T22:29:24;1.23;;;0.83;;
1651;SDS011;823;49.028;8.454;2023-02-26T22:34:25;4.20;;;0.70;;
1651;SDS011;823;49.028;8.454;2023-02-26T22:39:26;1.10;;;0.43;;
1651;SDS011;823;49.028;8.454;2023-02-26T22:44:26;3.37;;;0.80;;
1651;SDS011;823;49.028;8.454;2023-02-26T22:49:27;9.57;;;1.10;;
1651;SDS011;823;49.028;8.454;2023-02-26T22:54:27;5.57;;;0.68;;
1651;SDS011;823;49.028;8.454;2023-02-26T22:59:27;2.27;;;0.90;;
1651;SDS011;823;49.028;8.454;2023-02-26T23:04:28;1.80;;;0.68;;
1651;SDS011;823;49.028;8.454;2023-02-26T23:09:28;4.90;;;1.00;;
1651;SDS011;823;49.028;8.454;2023-02-26T23:14:28;2.27;;;0.57;;
1651;SDS011;823;49.028;8.454;2023-02-26T23:19:29;3.15;;;0.80;;
1651;SDS011;823;49.028;8.454;2023-02-26T23:24:29;6.60;;;1.07;;
1651;SDS011;823;49.028;8.454;2023-02-26T23:29:29;2.57;;;1.10;;
1651;SDS011;823;49.028;8.454;2023-02-26T23:34:30;0.90;;;0.70;;
1651;SDS011;823;49.028;8.454;2023-02-26T23:39:30;1.03;;;0.80;;
1651;SDS011;823;49.028;8.454;2023-02-26T23:44:30;1.05;;;0.77;;
1651;SDS011;823;49.028;8.454;2023-02-26T23:49:31;5.43;;;0.80;;
1651;SDS011;823;49.028;8.454;2023-02-26T23:54:31;1.10;;;0.85;;
1651;SDS011;823;49.028;8.454;2023-02-26T23:59:32;0.90;;;0.50;;
